createdAt,value
2023-05-19T00:02:11.712Z,101382.25
2023-05-19T00:04:05.438Z,101383.99
2023-05-19T00:05:59.027Z,101382.47
2023-05-19T00:07:52.642Z,101382.75
2023-05-19T00:09:44.379Z,101379.95
2023-05-19T00:11:37.570Z,101383.74
2023-05-19T00:13:29.821Z,101384.93
2023-05-19T00:15:22.016Z,101386.67
2023-05-19T00:17:14.453Z,101386.73
2023-05-19T00:19:11.480Z,101391.38
2023-05-19T00:21:02.912Z,101386.83
2023-05-19T00:22:54.394Z,101383.94
2023-05-19T00:24:46.582Z,101385.48
2023-05-19T00:26:38.337Z,101383.75
2023-05-19T00:28:29.974Z,101385.42
2023-05-19T00:30:23.122Z,101387.90
2023-05-19T00:32:15.808Z,101392.83
2023-05-19T00:34:07.422Z,101391.23
2023-05-19T00:35:59.784Z,101391.53
2023-05-19T00:37:51.171Z,101390.59
2023-05-19T00:39:42.553Z,101386.71
2023-05-19T00:41:33.744Z,101386.48
2023-05-19T00:43:25.199Z,101392.15
2023-05-19T00:45:17.133Z,101387.88
2023-05-19T00:47:09.272Z,101391.52
2023-05-19T00:49:01.170Z,101392.34
2023-05-19T00:51:10.357Z,101391.25
2023-05-19T00:54:08.101Z,101392.38
2023-05-19T00:56:12.948Z,101391.62
2023-05-19T00:58:33.134Z,101397.33
2023-05-19T01:08:40.148Z,101396.54
2023-05-19T01:10:31.976Z,101397.19
2023-05-19T01:12:23.786Z,101393.20
2023-05-19T01:14:16.376Z,101397.02
2023-05-19T01:16:48.661Z,101397.98
2023-05-19T01:26:46.017Z,101391.79
2023-05-19T01:32:06.626Z,101393.30
2023-05-19T01:34:00.140Z,101395.27
2023-05-19T01:35:51.198Z,101395.43
2023-05-19T01:37:42.065Z,101397.56
2023-05-19T01:39:32.838Z,101393.02
2023-05-19T01:41:24.026Z,101399.44
2023-05-19T01:43:21.165Z,101399.01
2023-05-19T01:45:11.561Z,101399.95
2023-05-19T01:47:02.345Z,101398.34
2023-05-19T01:48:53.040Z,101401.52
2023-05-19T01:50:44.068Z,101397.19
2023-05-19T01:52:35.126Z,101396.19
2023-05-19T01:54:25.386Z,101399.73
2023-05-19T01:56:21.753Z,101399.56
2023-05-19T01:58:18.894Z,101399.27
2023-05-19T02:00:32.788Z,101397.29
2023-05-19T02:02:53.742Z,101397.48
2023-05-19T02:04:50.925Z,101398.65
2023-05-19T02:10:04.693Z,101393.26
2023-05-19T02:12:01.778Z,101394.04
2023-05-19T02:13:55.818Z,101392.02
2023-05-19T02:15:47.284Z,101395.88
2023-05-19T02:17:47.120Z,101394.21
2023-05-19T02:19:39.628Z,101395.16
2023-05-19T02:21:30.548Z,101399.23
2023-05-19T02:23:20.918Z,101397.77
2023-05-19T02:25:11.164Z,101397.38
2023-05-19T02:27:01.989Z,101395.95
2023-05-19T02:28:52.083Z,101396.55
2023-05-19T02:30:42.248Z,101394.84
2023-05-19T02:32:32.618Z,101394.23
2023-05-19T02:34:22.515Z,101390.30
2023-05-19T02:36:13.946Z,101384.52
2023-05-19T02:38:04.543Z,101384.98
2023-05-19T02:39:54.779Z,101385.75
2023-05-19T02:41:45.369Z,101384.33
2023-05-19T02:43:35.754Z,101384.63
2023-05-19T02:45:28.013Z,101383.23
2023-05-19T02:47:18.464Z,101387.03
2023-05-19T02:49:08.814Z,101385.27
2023-05-19T02:50:58.872Z,101386.77
2023-05-19T02:52:49.150Z,101388.27
2023-05-19T02:54:39.228Z,101385.21
2023-05-19T02:56:29.317Z,101384.10
2023-05-19T02:58:19.970Z,101381.52
2023-05-19T03:00:10.599Z,101380.73
2023-05-19T03:02:01.798Z,101376.23
2023-05-19T03:03:52.234Z,101376.23
2023-05-19T03:05:43.085Z,101379.09
2023-05-19T03:07:33.115Z,101380.89
2023-05-19T03:09:24.420Z,101377.86
2023-05-19T03:11:14.816Z,101378.81
2023-05-19T03:13:05.480Z,101378.70
2023-05-19T03:14:55.587Z,101380.66
2023-05-19T03:16:45.882Z,101381.27
2023-05-19T03:18:36.601Z,101382.02
2023-05-19T03:20:26.997Z,101383.23
2023-05-19T03:22:20.694Z,101379.04
2023-05-19T03:24:11.267Z,101377.98
2023-05-19T03:26:01.510Z,101380.52
2023-05-19T03:27:51.876Z,101383.42
2023-05-19T03:29:42.346Z,101382.49
2023-05-19T03:31:32.385Z,101382.27
2023-05-19T03:33:23.434Z,101380.05
2023-05-19T03:35:13.650Z,101373.28
2023-05-19T03:37:03.967Z,101371.89
2023-05-19T03:38:54.514Z,101377.83
2023-05-19T03:40:44.968Z,101375.50
2023-05-19T03:42:35.084Z,101373.25
2023-05-19T03:44:25.143Z,101375.04
2023-05-19T03:46:15.117Z,101375.99
2023-05-19T03:48:06.396Z,101378.94
2023-05-19T03:49:56.482Z,101380.23
2023-05-19T03:51:46.744Z,101379.29
2023-05-19T03:53:37.438Z,101376.15
2023-05-19T03:55:29.305Z,101377.20
2023-05-19T03:57:25.660Z,101375.95
2023-05-19T03:59:16.046Z,101378.02
2023-05-19T04:01:06.576Z,101377.08
2023-05-19T04:02:56.762Z,101381.20
2023-05-19T04:04:47.422Z,101377.33
2023-05-19T04:06:48.665Z,101380.09
2023-05-19T04:08:39.427Z,101378.18
2023-05-19T04:10:30.371Z,101379.77
2023-05-19T04:12:21.016Z,101379.34
2023-05-19T04:14:31.051Z,101384.44
2023-05-19T04:16:32.718Z,101382.34
2023-05-19T04:18:23.340Z,101381.73
2023-05-19T04:20:13.740Z,101382.76
2023-05-19T04:22:04.475Z,101377.89
2023-05-19T04:23:54.852Z,101385.39
2023-05-19T04:25:48.012Z,101384.91
2023-05-19T04:27:38.680Z,101382.16
2023-05-19T04:29:28.873Z,101383.89
2023-05-19T04:31:20.995Z,101385.85
2023-05-19T04:33:11.397Z,101382.95
2023-05-19T04:35:02.597Z,101379.37
2023-05-19T04:36:53.466Z,101381.37
2023-05-19T04:38:45.321Z,101381.89
2023-05-19T04:40:36.500Z,101382.30
2023-05-19T04:42:29.966Z,101381.53
2023-05-19T04:44:20.051Z,101378.13
2023-05-19T04:46:13.872Z,101385.24
2023-05-19T04:48:04.529Z,101388.06
2023-05-19T04:50:16.260Z,101387.20
2023-05-19T04:52:09.932Z,101391.77
2023-05-19T04:54:00.865Z,101393.88
2023-05-19T04:55:52.175Z,101393.91
2023-05-19T04:57:42.462Z,101395.44
2023-05-19T04:59:33.394Z,101393.85
2023-05-19T05:01:25.492Z,101394.16
2023-05-19T05:03:15.873Z,101393.70
2023-05-19T05:05:07.244Z,101396.86
2023-05-19T05:06:57.489Z,101397.05
2023-05-19T05:08:48.340Z,101399.51
2023-05-19T05:10:38.704Z,101397.45
2023-05-19T05:12:29.234Z,101401.56
2023-05-19T05:14:19.610Z,101403.15
2023-05-19T05:16:10.848Z,101403.48
2023-05-19T05:18:01.246Z,101406.25
2023-05-19T05:19:52.217Z,101404.77
2023-05-19T05:21:48.054Z,101401.83
2023-05-19T05:23:38.480Z,101404.51
2023-05-19T05:25:28.961Z,101401.89
2023-05-19T05:27:19.148Z,101402.61
2023-05-19T05:29:09.904Z,101405.32
2023-05-19T05:31:00.174Z,101405.16
2023-05-19T05:32:50.748Z,101406.55
2023-05-19T05:34:41.385Z,101407.49
2023-05-19T05:36:34.295Z,101405.48
2023-05-19T05:38:25.310Z,101403.18
2023-05-19T05:40:15.471Z,101399.84
2023-05-19T05:42:08.417Z,101401.96
2023-05-19T05:43:58.905Z,101402.19
2023-05-19T05:45:49.070Z,101404.48
2023-05-19T05:47:40.910Z,101404.52
2023-05-19T05:49:31.577Z,101407.61
2023-05-19T05:51:22.247Z,101405.79
2023-05-19T05:53:17.688Z,101399.22
2023-05-19T05:55:08.489Z,101395.80
2023-05-19T05:56:58.671Z,101394.09
2023-05-19T05:58:49.032Z,101395.44
2023-05-19T06:00:39.079Z,101394.44
2023-05-19T06:02:29.494Z,101394.16
2023-05-19T06:04:20.492Z,101399.88
2023-05-19T06:06:11.082Z,101402.41
2023-05-19T06:08:01.580Z,101404.02
2023-05-19T06:09:51.889Z,101403.20
2023-05-19T06:11:42.153Z,101404.45
2023-05-19T06:13:32.142Z,101409.16
2023-05-19T06:15:22.384Z,101414.02
2023-05-19T06:17:12.847Z,101413.77
2023-05-19T06:19:03.158Z,101411.42
2023-05-19T06:20:53.301Z,101414.76
2023-05-19T06:22:43.638Z,101413.20
2023-05-19T06:24:34.056Z,101415.65
2023-05-19T06:26:24.571Z,101416.33
2023-05-19T06:28:14.889Z,101417.99
2023-05-19T06:30:07.980Z,101416.04
2023-05-19T06:31:58.613Z,101415.75
2023-05-19T06:33:48.866Z,101416.14
2023-05-19T06:35:39.187Z,101416.85
2023-05-19T06:37:29.489Z,101419.87
2023-05-19T06:39:19.438Z,101418.91
2023-05-19T06:41:09.849Z,101419.20
2023-05-19T06:43:00.380Z,101417.52
2023-05-19T06:44:51.740Z,101419.18
2023-05-19T06:46:45.387Z,101418.41
2023-05-19T06:48:35.628Z,101421.45
2023-05-19T06:50:25.900Z,101414.48
2023-05-19T06:52:46.839Z,101422.41
2023-05-19T06:54:38.082Z,101421.35
2023-05-19T06:56:28.570Z,101418.41
2023-05-19T06:58:18.841Z,101423.48
2023-05-19T07:00:11.624Z,101424.94
2023-05-19T07:02:01.842Z,101423.77
2023-05-19T07:03:52.304Z,101426.09
2023-05-19T07:05:42.724Z,101426.38
2023-05-19T07:07:33.116Z,101424.27
2023-05-19T07:09:23.457Z,101425.69
2023-05-19T07:11:19.840Z,101430.20
2023-05-19T07:13:10.274Z,101433.97
2023-05-19T07:15:00.889Z,101435.22
2023-05-19T07:16:51.084Z,101434.53
2023-05-19T07:18:41.755Z,101433.83
2023-05-19T07:20:32.140Z,101433.34
2023-05-19T07:22:23.572Z,101436.21
2023-05-19T07:24:13.765Z,101432.25
2023-05-19T07:26:03.888Z,101430.23
2023-05-19T07:27:54.177Z,101430.52
2023-05-19T07:29:44.298Z,101431.02
2023-05-19T07:31:34.438Z,101434.86
2023-05-19T07:33:26.394Z,101436.64
2023-05-19T07:35:16.531Z,101434.44
2023-05-19T07:37:07.068Z,101434.90
2023-05-19T07:38:57.347Z,101433.79
2023-05-19T07:40:48.066Z,101436.33
2023-05-19T07:42:38.221Z,101433.59
2023-05-19T07:44:30.749Z,101430.45
2023-05-19T07:46:21.639Z,101431.43
2023-05-19T07:48:12.248Z,101432.11
2023-05-19T07:50:03.146Z,101431.09
2023-05-19T07:51:53.808Z,101427.71
2023-05-19T07:53:44.233Z,101422.92
2023-05-19T07:55:34.347Z,101427.85
2023-05-19T07:57:24.773Z,101429.83
2023-05-19T07:59:15.385Z,101427.66
2023-05-19T08:01:05.730Z,101425.88
2023-05-19T08:02:56.715Z,101430.34
2023-05-19T08:04:48.883Z,101426.60
2023-05-19T08:06:42.011Z,101429.15
2023-05-19T08:08:32.758Z,101428.73
2023-05-19T08:10:23.128Z,101428.01
2023-05-19T08:12:13.408Z,101427.98
2023-05-19T08:14:04.118Z,101424.02
2023-05-19T08:15:58.922Z,101427.30
2023-05-19T08:17:49.327Z,101428.08
2023-05-19T08:19:39.369Z,101429.63
2023-05-19T08:21:29.360Z,101429.92
2023-05-19T08:23:19.377Z,101427.70
2023-05-19T08:25:09.766Z,101427.14
2023-05-19T08:27:00.039Z,101431.59
2023-05-19T08:28:50.252Z,101430.09
2023-05-19T08:30:40.843Z,101429.39
2023-05-19T08:32:31.478Z,101430.34
2023-05-19T08:34:21.860Z,101428.42
2023-05-19T08:36:12.424Z,101432.24
2023-05-19T08:38:02.486Z,101432.02
2023-05-19T08:39:52.437Z,101431.13
2023-05-19T08:41:42.715Z,101425.77
2023-05-19T08:43:33.151Z,101427.24
2023-05-19T08:45:23.946Z,101428.46
2023-05-19T08:47:14.618Z,101425.65
2023-05-19T08:49:11.803Z,101427.86
2023-05-19T08:51:34.404Z,101418.77
2023-05-19T08:53:37.068Z,101423.71
2023-05-19T08:55:41.672Z,101423.15
2023-05-19T08:57:32.356Z,101425.27
2023-05-19T08:59:22.654Z,101426.41
2023-05-19T09:01:16.290Z,101423.08
2023-05-19T09:05:02.803Z,101422.52
2023-05-19T09:06:53.221Z,101421.44
2023-05-19T09:08:43.678Z,101420.69
2023-05-19T09:10:35.852Z,101418.36
2023-05-19T09:12:26.025Z,101426.31
2023-05-19T09:14:16.040Z,101422.70
2023-05-19T09:16:07.459Z,101424.41
2023-05-19T09:18:06.559Z,101420.30
2023-05-19T09:19:56.604Z,101417.08
2023-05-19T09:21:58.858Z,101418.98
2023-05-19T09:23:49.325Z,101416.32
2023-05-19T09:25:47.854Z,101415.90
2023-05-19T09:27:37.569Z,101413.08
2023-05-19T09:29:27.499Z,101414.77
2023-05-19T09:31:17.202Z,101413.71
2023-05-19T09:33:09.397Z,101411.59
2023-05-19T09:35:02.421Z,101415.70
2023-05-19T09:36:53.625Z,101412.61
2023-05-19T09:38:45.206Z,101408.14
2023-05-19T09:40:35.365Z,101410.66
2023-05-19T09:42:26.544Z,101412.42
2023-05-19T09:44:20.906Z,101408.84
2023-05-19T09:46:12.169Z,101403.99
2023-05-19T09:48:05.700Z,101406.45
2023-05-19T09:49:56.641Z,101407.22
2023-05-19T09:51:50.944Z,101402.63
2023-05-19T09:53:41.454Z,101401.90
2023-05-19T09:55:33.018Z,101399.67
2023-05-19T09:57:27.867Z,101396.25
2023-05-19T09:59:18.768Z,101398.87
2023-05-19T10:01:09.255Z,101393.57
2023-05-19T10:03:01.607Z,101388.55
2023-05-19T10:04:54.500Z,101381.89
2023-05-19T10:06:45.539Z,101379.04
2023-05-19T10:08:37.212Z,101378.15
2023-05-19T10:10:28.588Z,101383.92
2023-05-19T10:12:19.959Z,101384.90
2023-05-19T10:14:10.101Z,101382.06
2023-05-19T10:16:00.885Z,101378.86
2023-05-19T10:17:51.918Z,101379.14
2023-05-19T10:19:43.450Z,101380.98
2023-05-19T10:21:34.157Z,101380.64
2023-05-19T10:23:24.939Z,101380.77
2023-05-19T10:25:17.988Z,101378.10
2023-05-19T10:27:14.153Z,101372.35
2023-05-19T10:29:04.559Z,101377.34
2023-05-19T10:30:59.243Z,101370.21
2023-05-19T10:32:51.280Z,101370.23
2023-05-19T10:35:19.667Z,101370.36
2023-05-19T10:37:15.420Z,101372.49
2023-05-19T10:39:32.251Z,101373.83
2023-05-19T10:41:35.108Z,101375.98
2023-05-19T10:43:53.645Z,101376.23
2023-05-19T10:45:54.167Z,101376.39
2023-05-19T10:47:45.240Z,101375.38
2023-05-19T10:49:37.303Z,101381.25
2023-05-19T10:51:31.506Z,101380.23
2023-05-19T10:53:22.051Z,101379.82
2023-05-19T10:55:17.036Z,101382.58
2023-05-19T10:57:07.658Z,101386.57
2023-05-19T10:58:57.878Z,101386.67
2023-05-19T11:00:59.834Z,101389.64
2023-05-19T11:02:55.434Z,101393.85
2023-05-19T11:04:50.981Z,101388.66
2023-05-19T11:06:50.763Z,101386.02
2023-05-19T11:08:40.856Z,101383.17
2023-05-19T11:10:31.379Z,101376.27
2023-05-19T11:12:24.552Z,101377.27
2023-05-19T11:14:17.696Z,101375.17
2023-05-19T11:16:08.651Z,101372.05
2023-05-19T11:18:01.007Z,101375.33
2023-05-19T11:19:55.292Z,101374.54
2023-05-19T11:21:54.313Z,101377.84
2023-05-19T11:23:44.613Z,101377.11
2023-05-19T11:25:42.810Z,101378.89
2023-05-19T11:27:34.302Z,101376.39
2023-05-19T11:29:24.400Z,101377.20
2023-05-19T11:31:14.526Z,101378.64
2023-05-19T11:33:05.542Z,101377.17
2023-05-19T11:34:56.990Z,101377.20
2023-05-19T11:36:47.577Z,101374.45
2023-05-19T11:38:37.606Z,101376.05
2023-05-19T11:40:28.817Z,101373.90
2023-05-19T11:42:19.461Z,101373.86
2023-05-19T11:44:11.156Z,101373.39
2023-05-19T11:46:01.084Z,101381.81
2023-05-19T11:48:02.063Z,101381.64
2023-05-19T11:49:55.959Z,101383.23
2023-05-19T11:51:46.369Z,101381.11
2023-05-19T11:53:37.996Z,101381.20
2023-05-19T11:55:28.000Z,101382.51
2023-05-19T11:58:07.158Z,101379.77
2023-05-19T12:00:02.640Z,101379.93
2023-05-19T12:01:53.923Z,101379.35
2023-05-19T12:03:46.720Z,101382.73
2023-05-19T12:05:47.345Z,101382.98
2023-05-19T12:07:40.541Z,101385.46
2023-05-19T12:09:33.055Z,101385.39
2023-05-19T12:11:24.630Z,101385.21
2023-05-19T12:13:17.316Z,101385.45
2023-05-19T12:15:09.941Z,101381.19
2023-05-19T12:17:15.408Z,101379.00
2023-05-19T12:19:06.990Z,101380.01
2023-05-19T12:20:58.785Z,101376.67
2023-05-19T12:22:51.082Z,101377.77
2023-05-19T12:24:43.528Z,101380.77
2023-05-19T12:26:36.072Z,101376.71
2023-05-19T12:28:31.303Z,101377.15
2023-05-19T12:30:29.433Z,101379.63
2023-05-19T12:32:25.712Z,101377.21
2023-05-19T12:34:17.470Z,101379.05
2023-05-19T12:36:10.393Z,101378.92
2023-05-19T12:38:12.284Z,101378.41
2023-05-19T12:40:04.668Z,101382.37
2023-05-19T12:42:10.511Z,101383.69
2023-05-19T12:44:02.328Z,101384.11
2023-05-19T12:45:54.349Z,101384.11
2023-05-19T12:47:48.404Z,101383.48
2023-05-19T12:50:09.397Z,101389.14
2023-05-19T12:52:07.236Z,101388.35
2023-05-19T12:54:05.073Z,101385.88
2023-05-19T12:55:57.106Z,101380.48
2023-05-19T12:57:56.865Z,101382.05
2023-05-19T12:59:51.554Z,101379.19
2023-05-19T13:01:43.491Z,101377.34
2023-05-19T13:03:42.073Z,101379.11
2023-05-19T13:05:43.602Z,101374.71
2023-05-19T13:07:36.209Z,101379.80
2023-05-19T13:09:28.618Z,101373.80
2023-05-19T13:11:20.226Z,101372.46
2023-05-19T13:13:12.949Z,101370.45
2023-05-19T13:15:04.733Z,101376.49
2023-05-19T13:16:56.422Z,101376.85
2023-05-19T13:18:47.808Z,101378.80
2023-05-19T13:20:41.187Z,101376.58
2023-05-19T13:22:33.211Z,101377.63
2023-05-19T13:24:25.276Z,101375.36
2023-05-19T13:26:17.155Z,101373.29
2023-05-19T13:28:09.678Z,101371.02
2023-05-19T13:30:01.913Z,101370.77
2023-05-19T13:31:53.394Z,101370.40
2023-05-19T13:33:45.317Z,101373.34
2023-05-19T13:35:37.978Z,101373.73
2023-05-19T13:37:30.375Z,101373.80
2023-05-19T13:39:21.942Z,101371.58
2023-05-19T13:41:16.003Z,101376.13
2023-05-19T13:43:08.723Z,101372.65
2023-05-19T13:45:00.370Z,101374.95
2023-05-19T13:46:52.435Z,101373.83
2023-05-19T13:48:44.424Z,101368.34
2023-05-19T13:50:35.877Z,101371.77
2023-05-19T13:52:58.372Z,101368.41
2023-05-19T13:54:38.824Z,101369.79
2023-05-19T13:56:31.513Z,101370.58
2023-05-19T13:58:23.425Z,101368.85
2023-05-19T14:00:15.419Z,101368.73
2023-05-19T14:02:07.284Z,101370.48
2023-05-19T14:04:00.845Z,101371.59
2023-05-19T14:05:53.158Z,101371.70
2023-05-19T14:07:45.127Z,101369.71
2023-05-19T14:09:36.970Z,101368.73
2023-05-19T14:11:29.187Z,101368.42
2023-05-19T14:13:32.006Z,101364.23
2023-05-19T14:15:27.056Z,101366.02
2023-05-19T14:17:18.609Z,101363.09
2023-05-19T14:19:11.353Z,101366.05
2023-05-19T14:21:03.014Z,101364.61
2023-05-19T14:22:55.517Z,101366.34
2023-05-19T14:24:47.187Z,101364.55
2023-05-19T14:26:38.905Z,101359.50
2023-05-19T14:28:30.413Z,101358.66
2023-05-19T14:30:22.205Z,101358.04
2023-05-19T14:32:14.010Z,101357.25
2023-05-19T14:34:05.811Z,101358.31
2023-05-19T14:36:00.164Z,101357.13
2023-05-19T14:37:51.716Z,101358.47
2023-05-19T14:39:43.963Z,101354.55
2023-05-19T14:41:35.673Z,101356.25
2023-05-19T14:43:27.630Z,101354.90
2023-05-19T14:45:19.419Z,101356.08
2023-05-19T14:47:12.537Z,101359.75
2023-05-19T14:49:06.504Z,101357.34
2023-05-19T14:50:58.201Z,101359.23
2023-05-19T14:52:49.738Z,101358.90
2023-05-19T14:54:40.936Z,101358.64
2023-05-19T14:56:32.512Z,101358.30
2023-05-19T14:58:29.006Z,101356.77
2023-05-19T15:00:20.989Z,101357.27
2023-05-19T15:02:12.728Z,101358.84
2023-05-19T15:04:04.237Z,101357.38
2023-05-19T15:05:56.257Z,101358.17
2023-05-19T15:07:47.662Z,101357.34
2023-05-19T15:09:40.598Z,101358.92
2023-05-19T15:11:34.184Z,101356.88
2023-05-19T15:13:26.428Z,101360.02
2023-05-19T15:15:18.570Z,101357.70
2023-05-19T15:17:10.684Z,101355.77
2023-05-19T15:19:02.205Z,101357.02
2023-05-19T15:20:53.395Z,101350.65
2023-05-19T15:22:45.064Z,101353.30
2023-05-19T15:24:36.239Z,101349.90
2023-05-19T15:26:29.742Z,101350.80
2023-05-19T15:28:21.723Z,101349.62
2023-05-19T15:30:13.194Z,101349.08
2023-05-19T15:32:05.474Z,101347.25
2023-05-19T15:33:57.213Z,101343.11
2023-05-19T15:35:51.855Z,101344.23
2023-05-19T15:37:43.657Z,101341.48
2023-05-19T15:39:35.441Z,101336.29
2023-05-19T15:41:27.179Z,101339.17
2023-05-19T15:43:21.381Z,101337.80
2023-05-19T15:45:12.967Z,101329.86
2023-05-19T15:47:05.021Z,101334.64
2023-05-19T15:48:56.514Z,101330.09
2023-05-19T15:50:48.864Z,101325.56
2023-05-19T15:52:40.450Z,101326.91
2023-05-19T15:54:31.877Z,101326.14
2023-05-19T15:56:23.672Z,101329.61
2023-05-19T15:58:16.845Z,101329.95
2023-05-19T16:00:09.295Z,101327.14
2023-05-19T16:02:00.935Z,101328.20
2023-05-19T16:03:52.877Z,101327.52
2023-05-19T16:05:44.385Z,101328.69
2023-05-19T16:07:36.298Z,101333.66
2023-05-19T16:09:27.718Z,101331.94
2023-05-19T16:11:20.745Z,101339.11
2023-05-19T16:13:12.897Z,101337.94
2023-05-19T16:15:04.801Z,101340.52
2023-05-19T16:16:56.803Z,101340.73
2023-05-19T16:18:49.638Z,101336.36
2023-05-19T16:20:42.035Z,101334.39
2023-05-19T16:22:33.682Z,101332.98
2023-05-19T16:24:25.615Z,101330.46
2023-05-19T16:26:17.365Z,101328.29
2023-05-19T16:28:09.206Z,101329.02
2023-05-19T16:30:01.319Z,101330.95
2023-05-19T16:31:52.936Z,101326.44
2023-05-19T16:33:44.721Z,101329.94
2023-05-19T16:35:36.378Z,101331.23
2023-05-19T16:37:28.093Z,101332.12
2023-05-19T16:39:19.977Z,101329.73
2023-05-19T16:41:11.951Z,101328.58
2023-05-19T16:43:03.867Z,101327.70
2023-05-19T16:44:55.799Z,101326.10
2023-05-19T16:46:46.972Z,101325.22
2023-05-19T16:48:38.788Z,101326.61
2023-05-19T16:50:30.306Z,101325.21
2023-05-19T16:52:22.134Z,101328.20
2023-05-19T16:54:13.686Z,101326.27
2023-05-19T16:56:08.305Z,101325.95
2023-05-19T16:57:59.825Z,101327.94
2023-05-19T16:59:51.253Z,101328.80
2023-05-19T17:01:44.433Z,101327.17
2023-05-19T17:03:36.151Z,101326.40
2023-05-19T17:05:28.083Z,101328.66
2023-05-19T17:07:20.379Z,101330.88
2023-05-19T17:09:12.353Z,101331.58
2023-05-19T17:11:03.883Z,101327.55
2023-05-19T17:12:55.255Z,101329.22
2023-05-19T17:14:46.854Z,101332.24
2023-05-19T17:16:38.704Z,101331.38
2023-05-19T17:18:31.468Z,101330.50
2023-05-19T17:20:23.236Z,101333.70
2023-05-19T17:22:15.127Z,101331.17
2023-05-19T17:24:07.623Z,101339.14
2023-05-19T17:25:59.355Z,101333.92
2023-05-19T17:27:52.774Z,101335.09
2023-05-19T17:29:44.495Z,101336.13
2023-05-19T17:31:36.650Z,101340.07
2023-05-19T17:33:28.243Z,101340.40
2023-05-19T17:35:20.048Z,101342.33
2023-05-19T17:37:11.567Z,101343.67
2023-05-19T17:39:03.698Z,101346.04
2023-05-19T17:41:02.205Z,101346.51
2023-05-19T17:42:53.884Z,101346.63
2023-05-19T17:44:45.835Z,101344.70
2023-05-19T17:46:39.350Z,101345.09
2023-05-19T17:48:31.253Z,101349.29
2023-05-19T17:50:22.712Z,101347.62
2023-05-19T17:52:15.976Z,101350.77
2023-05-19T17:54:08.203Z,101352.48
2023-05-19T17:56:02.501Z,101353.40
2023-05-19T17:57:54.409Z,101349.67
2023-05-19T17:59:46.592Z,101349.96
2023-05-19T18:01:38.486Z,101347.90
2023-05-19T18:03:30.864Z,101349.45
2023-05-19T18:05:22.875Z,101347.64
2023-05-19T18:07:14.744Z,101351.02
2023-05-19T18:09:09.869Z,101343.88
2023-05-19T18:11:03.021Z,101343.48
2023-05-19T18:12:54.464Z,101342.60
2023-05-19T18:14:45.670Z,101341.67
2023-05-19T18:16:37.278Z,101342.27
2023-05-19T18:18:28.682Z,101339.23
2023-05-19T18:20:20.452Z,101341.16
2023-05-19T18:22:13.168Z,101343.36
2023-05-19T18:24:05.548Z,101344.44
2023-05-19T18:25:58.187Z,101344.90
2023-05-19T18:27:49.963Z,101338.34
2023-05-19T18:29:42.431Z,101339.60
2023-05-19T18:31:34.087Z,101336.36
2023-05-19T18:33:26.802Z,101338.59
2023-05-19T18:35:21.225Z,101336.69
2023-05-19T18:37:13.084Z,101334.08
2023-05-19T18:39:04.961Z,101333.28
2023-05-19T18:40:56.828Z,101330.29
2023-05-19T18:42:48.502Z,101331.60
2023-05-19T18:44:39.903Z,101330.54
2023-05-19T18:46:32.022Z,101333.64
2023-05-19T18:48:26.308Z,101336.91
2023-05-19T18:50:18.091Z,101341.98
2023-05-19T18:52:11.821Z,101342.35
2023-05-19T18:54:03.424Z,101336.79
2023-05-19T18:55:55.393Z,101344.33
2023-05-19T18:57:46.756Z,101346.60
2023-05-19T18:59:39.060Z,101348.40
2023-05-19T19:01:31.175Z,101356.21
2023-05-19T19:03:22.888Z,101353.69
2023-05-19T19:05:14.962Z,101356.63
2023-05-19T19:07:06.991Z,101360.10
2023-05-19T19:08:58.948Z,101365.95
2023-05-19T19:10:51.612Z,101364.73
2023-05-19T19:12:43.247Z,101365.70
2023-05-19T19:14:34.678Z,101366.13
2023-05-19T19:16:27.510Z,101368.86
2023-05-19T19:18:19.395Z,101367.13
2023-05-19T19:20:11.586Z,101371.11
2023-05-19T19:22:03.258Z,101373.66
2023-05-19T19:23:55.487Z,101375.15
2023-05-19T19:25:47.173Z,101375.39
2023-05-19T19:27:38.806Z,101377.23
2023-05-19T19:29:30.887Z,101378.94
2023-05-19T19:31:23.768Z,101380.41
2023-05-19T19:33:18.117Z,101375.18
2023-05-19T19:35:09.743Z,101381.39
2023-05-19T19:37:01.805Z,101381.10
2023-05-19T19:38:53.813Z,101380.88
2023-05-19T19:40:45.285Z,101380.23
2023-05-19T19:42:38.570Z,101379.42
2023-05-19T19:44:30.106Z,101376.23
2023-05-19T19:46:21.580Z,101375.71
2023-05-19T19:48:13.500Z,101375.04
2023-05-19T19:50:05.819Z,101371.52
2023-05-19T19:51:58.071Z,101374.54
2023-05-19T19:53:49.654Z,101370.77
2023-05-19T19:55:43.151Z,101372.85
2023-05-19T19:57:35.175Z,101372.36
2023-05-19T19:59:26.993Z,101376.83
2023-05-19T20:01:23.589Z,101373.26
2023-05-19T20:03:16.480Z,101373.80
2023-05-19T20:05:08.955Z,101377.09
2023-05-19T20:07:00.758Z,101379.96
2023-05-19T20:08:52.741Z,101382.98
2023-05-19T20:10:46.493Z,101382.89
2023-05-19T20:12:38.395Z,101384.79
2023-05-19T20:14:30.724Z,101384.16
2023-05-19T20:16:24.194Z,101385.05
2023-05-19T20:18:15.950Z,101388.19
2023-05-19T20:20:10.977Z,101391.06
2023-05-19T20:22:02.476Z,101391.64
2023-05-19T20:23:53.906Z,101387.91
2023-05-19T20:26:09.424Z,101388.06
2023-05-19T20:27:58.611Z,101382.95
2023-05-19T20:29:50.132Z,101385.30
2023-05-19T20:31:41.649Z,101380.05
2023-05-19T20:33:33.550Z,101385.04
2023-05-19T20:35:25.468Z,101386.92
2023-05-19T20:37:17.533Z,101389.73
2023-05-19T20:39:10.288Z,101387.35
2023-05-19T20:41:02.112Z,101389.06
2023-05-19T20:42:53.788Z,101388.92
2023-05-19T20:44:45.832Z,101387.50
2023-05-19T20:46:37.727Z,101388.58
2023-05-19T20:48:29.044Z,101386.51
2023-05-19T20:50:20.562Z,101387.08
2023-05-19T20:52:12.128Z,101381.98
2023-05-19T20:54:05.364Z,101380.77
2023-05-19T20:55:56.993Z,101380.52
2023-05-19T20:57:48.629Z,101375.77
2023-05-19T20:59:40.552Z,101379.23
2023-05-19T21:01:32.415Z,101377.35
2023-05-19T21:03:25.082Z,101377.80
2023-05-19T21:05:16.835Z,101375.59
2023-05-19T21:07:08.808Z,101376.81
2023-05-19T21:09:03.791Z,101374.87
2023-05-19T21:10:56.004Z,101373.31
2023-05-19T21:12:47.759Z,101372.89
2023-05-19T21:14:39.045Z,101371.71
2023-05-19T21:16:31.545Z,101371.66
2023-05-19T21:18:23.202Z,101369.52
2023-05-19T21:20:14.518Z,101368.70
2023-05-19T21:22:06.335Z,101371.88
2023-05-19T21:23:58.089Z,101371.45
2023-05-19T21:25:50.596Z,101372.58
2023-05-19T21:27:42.757Z,101373.16
2023-05-19T21:29:34.358Z,101373.63
2023-05-19T21:31:25.721Z,101371.77
2023-05-19T21:33:17.378Z,101373.61
2023-05-19T21:35:09.517Z,101373.41
2023-05-19T21:37:01.226Z,101371.89
2023-05-19T21:38:53.261Z,101373.91
2023-05-19T21:40:47.151Z,101371.13
2023-05-19T21:42:38.601Z,101369.46
2023-05-19T21:44:31.823Z,101371.09
2023-05-19T21:46:23.100Z,101372.98
2023-05-19T21:48:14.496Z,101371.38
2023-05-19T21:50:07.053Z,101373.48
2023-05-19T21:51:58.599Z,101370.50
2023-05-19T21:53:50.484Z,101374.10